sensor_id;sensor_type;location;lat;lon;timestamp;P1;durP1;ratioP1;P2;durP2;ratioP2
72201;SDS011;60105;54.956;73.412;2023-05-14T00:00:32;8.63;;;4.70;;
72201;SDS011;60105;54.956;73.412;2023-05-14T00:03:33;7.28;;;5.05;;
72201;SDS011;60105;54.956;73.412;2023-05-14T00:06:34;8.38;;;4.90;;
72201;SDS011;60105;54.956;73.412;2023-05-14T00:09:36;8.15;;;5.28;;
72201;SDS011;60105;54.956;73.412;2023-05-14T00:13:18;8.12;;;5.06;;
72201;SDS011;60105;54.956;73.412;2023-05-14T00:16:19;8.63;;;5.00;;
72201;SDS011;60105;54.956;73.412;2023-05-14T00:19:20;8.20;;;5.68;;
72201;SDS011;60105;54.956;73.412;2023-05-14T00:22:21;8.13;;;5.22;;
72201;SDS011;60105;54.956;73.412;2023-05-14T00:25:23;7.57;;;5.67;;
72201;SDS011;60105;54.956;73.412;2023-05-14T00:28:24;7.20;;;5.50;;
72201;SDS011;60105;54.956;73.412;2023-05-14T00:31:26;11.10;;;5.20;;
72201;SDS011;60105;54.956;73.412;2023-05-14T00:34:27;9.47;;;5.00;;
72201;SDS011;60105;54.956;73.412;2023-05-14T00:37:28;10.95;;;5.80;;
72201;SDS011;60105;54.956;73.412;2023-05-14T00:40:30;9.05;;;5.13;;
72201;SDS011;60105;54.956;73.412;2023-05-14T00:43:32;9.10;;;5.40;;
72201;SDS011;60105;54.956;73.412;2023-05-14T00:46:33;11.60;;;5.88;;
72201;SDS011;60105;54.956;73.412;2023-05-14T00:49:35;10.70;;;5.23;;
72201;SDS011;60105;54.956;73.412;2023-05-14T00:53:18;12.23;;;5.57;;
72201;SDS011;60105;54.956;73.412;2023-05-14T00:56:20;6.30;;;4.43;;
72201;SDS011;60105;54.956;73.412;2023-05-14T00:59:22;9.20;;;4.43;;
72201;SDS011;60105;54.956;73.412;2023-05-14T01:02:23;9.75;;;4.70;;
72201;SDS011;60105;54.956;73.412;2023-05-14T01:05:25;8.70;;;5.40;;
72201;SDS011;60105;54.956;73.412;2023-05-14T01:08:39;8.90;;;5.40;;
72201;SDS011;60105;54.956;73.412;2023-05-14T01:15:24;8.18;;;4.95;;
72201;SDS011;60105;54.956;73.412;2023-05-14T01:18:29;10.50;;;5.17;;
72201;SDS011;60105;54.956;73.412;2023-05-14T01:21:36;13.40;;;5.05;;
72201;SDS011;60105;54.956;73.412;2023-05-14T01:24:40;9.25;;;5.00;;
72201;SDS011;60105;54.956;73.412;2023-05-14T01:28:19;9.15;;;5.38;;
72201;SDS011;60105;54.956;73.412;2023-05-14T01:31:26;8.73;;;5.20;;
72201;SDS011;60105;54.956;73.412;2023-05-14T01:34:32;11.10;;;5.95;;
72201;SDS011;60105;54.956;73.412;2023-05-14T01:37:46;10.57;;;6.34;;
72201;SDS011;60105;54.956;73.412;2023-05-14T01:40:51;11.00;;;6.50;;
72201;SDS011;60105;54.956;73.412;2023-05-14T01:43:54;9.37;;;5.83;;
72201;SDS011;60105;54.956;73.412;2023-05-14T01:46:55;8.60;;;5.85;;
72201;SDS011;60105;54.956;73.412;2023-05-14T01:49:56;11.65;;;6.50;;
72201;SDS011;60105;54.956;73.412;2023-05-14T01:56:19;9.23;;;5.50;;
72201;SDS011;60105;54.956;73.412;2023-05-14T01:59:23;10.47;;;5.00;;
72201;SDS011;60105;54.956;73.412;2023-05-14T02:02:24;8.65;;;6.15;;
72201;SDS011;60105;54.956;73.412;2023-05-14T02:05:26;10.32;;;5.95;;
72201;SDS011;60105;54.956;73.412;2023-05-14T02:08:28;10.13;;;5.72;;
72201;SDS011;60105;54.956;73.412;2023-05-14T02:11:29;9.68;;;5.78;;
72201;SDS011;60105;54.956;73.412;2023-05-14T02:14:31;10.20;;;5.87;;
72201;SDS011;60105;54.956;73.412;2023-05-14T02:17:33;13.00;;;6.10;;
72201;SDS011;60105;54.956;73.412;2023-05-14T02:20:35;10.37;;;6.73;;
72201;SDS011;60105;54.956;73.412;2023-05-14T02:23:36;10.90;;;7.15;;
72201;SDS011;60105;54.956;73.412;2023-05-14T02:26:38;13.48;;;7.05;;
72201;SDS011;60105;54.956;73.412;2023-05-14T02:29:39;15.05;;;7.55;;
72201;SDS011;60105;54.956;73.412;2023-05-14T02:33:18;12.20;;;7.75;;
72201;SDS011;60105;54.956;73.412;2023-05-14T02:36:19;17.52;;;8.10;;
72201;SDS011;60105;54.956;73.412;2023-05-14T02:39:20;14.97;;;7.00;;
72201;SDS011;60105;54.956;73.412;2023-05-14T02:42:22;13.20;;;7.15;;
72201;SDS011;60105;54.956;73.412;2023-05-14T02:45:24;15.30;;;7.60;;
72201;SDS011;60105;54.956;73.412;2023-05-14T02:48:25;12.50;;;6.57;;
72201;SDS011;60105;54.956;73.412;2023-05-14T02:51:26;12.77;;;7.05;;
72201;SDS011;60105;54.956;73.412;2023-05-14T02:54:28;12.15;;;7.68;;
72201;SDS011;60105;54.956;73.412;2023-05-14T02:57:29;12.70;;;7.05;;
72201;SDS011;60105;54.956;73.412;2023-05-14T03:00:31;11.57;;;7.43;;
72201;SDS011;60105;54.956;73.412;2023-05-14T03:03:32;17.85;;;6.35;;
72201;SDS011;60105;54.956;73.412;2023-05-14T03:06:34;10.13;;;6.82;;
72201;SDS011;60105;54.956;73.412;2023-05-14T03:09:35;10.98;;;6.43;;
72201;SDS011;60105;54.956;73.412;2023-05-14T03:13:18;12.82;;;7.35;;
72201;SDS011;60105;54.956;73.412;2023-05-14T03:16:20;10.80;;;6.35;;
72201;SDS011;60105;54.956;73.412;2023-05-14T03:19:21;13.03;;;7.93;;
72201;SDS011;60105;54.956;73.412;2023-05-14T03:22:23;13.68;;;7.70;;
72201;SDS011;60105;54.956;73.412;2023-05-14T03:25:24;14.55;;;8.38;;
72201;SDS011;60105;54.956;73.412;2023-05-14T03:28:26;11.40;;;7.13;;
72201;SDS011;60105;54.956;73.412;2023-05-14T03:31:28;19.98;;;8.65;;
72201;SDS011;60105;54.956;73.412;2023-05-14T03:34:30;22.00;;;10.37;;
72201;SDS011;60105;54.956;73.412;2023-05-14T03:37:33;24.42;;;10.80;;
72201;SDS011;60105;54.956;73.412;2023-05-14T03:40:34;19.10;;;10.20;;
72201;SDS011;60105;54.956;73.412;2023-05-14T03:43:35;15.57;;;8.63;;
72201;SDS011;60105;54.956;73.412;2023-05-14T03:46:37;22.85;;;9.77;;
72201;SDS011;60105;54.956;73.412;2023-05-14T03:49:38;24.60;;;11.73;;
72201;SDS011;60105;54.956;73.412;2023-05-14T03:53:17;20.30;;;9.90;;
72201;SDS011;60105;54.956;73.412;2023-05-14T03:56:20;20.30;;;9.63;;
72201;SDS011;60105;54.956;73.412;2023-05-14T03:59:22;16.47;;;8.47;;
72201;SDS011;60105;54.956;73.412;2023-05-14T04:02:23;16.10;;;7.93;;
72201;SDS011;60105;54.956;73.412;2023-05-14T04:05:25;12.82;;;7.88;;
72201;SDS011;60105;54.956;73.412;2023-05-14T04:08:27;13.15;;;7.28;;
72201;SDS011;60105;54.956;73.412;2023-05-14T04:11:30;11.50;;;7.20;;
72201;SDS011;60105;54.956;73.412;2023-05-14T04:14:33;13.70;;;6.77;;
72201;SDS011;60105;54.956;73.412;2023-05-14T04:18:17;11.02;;;7.70;;
72201;SDS011;60105;54.956;73.412;2023-05-14T04:21:19;11.73;;;7.53;;
72201;SDS011;60105;54.956;73.412;2023-05-14T04:24:20;10.60;;;7.67;;
72201;SDS011;60105;54.956;73.412;2023-05-14T04:27:23;14.93;;;7.82;;
72201;SDS011;60105;54.956;73.412;2023-05-14T04:30:25;11.80;;;6.63;;
72201;SDS011;60105;54.956;73.412;2023-05-14T04:33:26;10.05;;;6.68;;
72201;SDS011;60105;54.956;73.412;2023-05-14T04:36:28;15.98;;;6.88;;
72201;SDS011;60105;54.956;73.412;2023-05-14T04:39:29;9.50;;;6.23;;
72201;SDS011;60105;54.956;73.412;2023-05-14T04:42:30;10.10;;;7.45;;
72201;SDS011;60105;54.956;73.412;2023-05-14T04:45:32;9.37;;;6.43;;
72201;SDS011;60105;54.956;73.412;2023-05-14T04:48:33;17.77;;;6.37;;
72201;SDS011;60105;54.956;73.412;2023-05-14T04:51:35;12.10;;;7.40;;
72201;SDS011;60105;54.956;73.412;2023-05-14T04:54:36;11.20;;;6.60;;
72201;SDS011;60105;54.956;73.412;2023-05-14T04:58:17;10.88;;;6.50;;
72201;SDS011;60105;54.956;73.412;2023-05-14T05:01:19;11.20;;;6.77;;
72201;SDS011;60105;54.956;73.412;2023-05-14T05:04:20;14.40;;;6.77;;
72201;SDS011;60105;54.956;73.412;2023-05-14T05:07:24;9.15;;;6.28;;
72201;SDS011;60105;54.956;73.412;2023-05-14T05:10:25;10.90;;;6.53;;
72201;SDS011;60105;54.956;73.412;2023-05-14T05:13:26;7.60;;;5.80;;
72201;SDS011;60105;54.956;73.412;2023-05-14T05:16:28;10.55;;;6.28;;
72201;SDS011;60105;54.956;73.412;2023-05-14T05:19:29;11.25;;;6.15;;
72201;SDS011;60105;54.956;73.412;2023-05-14T05:22:30;14.00;;;6.07;;
72201;SDS011;60105;54.956;73.412;2023-05-14T05:25:32;11.55;;;5.97;;
72201;SDS011;60105;54.956;73.412;2023-05-14T05:28:34;14.18;;;6.72;;
72201;SDS011;60105;54.956;73.412;2023-05-14T05:31:35;19.17;;;6.73;;
72201;SDS011;60105;54.956;73.412;2023-05-14T05:34:36;16.48;;;6.78;;
72201;SDS011;60105;54.956;73.412;2023-05-14T05:37:46;11.24;;;7.34;;
72201;SDS011;60105;54.956;73.412;2023-05-14T05:40:47;10.80;;;6.07;;
72201;SDS011;60105;54.956;73.412;2023-05-14T05:43:50;11.37;;;6.73;;
72201;SDS011;60105;54.956;73.412;2023-05-14T05:46:51;11.45;;;5.75;;
72201;SDS011;60105;54.956;73.412;2023-05-14T05:49:52;13.93;;;6.57;;
72201;SDS011;60105;54.956;73.412;2023-05-14T05:56:19;11.20;;;6.10;;
72201;SDS011;60105;54.956;73.412;2023-05-14T05:59:21;11.13;;;6.17;;
72201;SDS011;60105;54.956;73.412;2023-05-14T06:02:22;9.15;;;6.93;;
72201;SDS011;60105;54.956;73.412;2023-05-14T06:05:24;9.85;;;6.18;;
72201;SDS011;60105;54.956;73.412;2023-05-14T06:08:26;12.73;;;6.93;;
72201;SDS011;60105;54.956;73.412;2023-05-14T06:11:27;11.45;;;6.03;;
72201;SDS011;60105;54.956;73.412;2023-05-14T06:14:28;11.55;;;5.50;;
72201;SDS011;60105;54.956;73.412;2023-05-14T06:17:30;12.85;;;6.43;;
72201;SDS011;60105;54.956;73.412;2023-05-14T06:20:31;8.73;;;5.67;;
72201;SDS011;60105;54.956;73.412;2023-05-14T06:23:34;11.60;;;6.03;;
72201;SDS011;60105;54.956;73.412;2023-05-14T06:26:35;11.87;;;5.63;;
72201;SDS011;60105;54.956;73.412;2023-05-14T06:29:37;8.63;;;4.97;;
72201;SDS011;60105;54.956;73.412;2023-05-14T06:33:17;10.88;;;4.90;;
72201;SDS011;60105;54.956;73.412;2023-05-14T06:36:22;14.55;;;5.35;;
72201;SDS011;60105;54.956;73.412;2023-05-14T06:39:23;9.17;;;5.67;;
72201;SDS011;60105;54.956;73.412;2023-05-14T06:42:25;11.18;;;5.15;;
72201;SDS011;60105;54.956;73.412;2023-05-14T06:45:26;11.25;;;5.75;;
72201;SDS011;60105;54.956;73.412;2023-05-14T06:48:28;9.60;;;5.17;;
72201;SDS011;60105;54.956;73.412;2023-05-14T06:51:30;9.60;;;5.50;;
72201;SDS011;60105;54.956;73.412;2023-05-14T06:54:32;9.27;;;5.27;;
72201;SDS011;60105;54.956;73.412;2023-05-14T06:58:17;10.19;;;5.51;;
72201;SDS011;60105;54.956;73.412;2023-05-14T07:01:19;8.60;;;4.50;;
72201;SDS011;60105;54.956;73.412;2023-05-14T07:04:20;11.90;;;5.18;;
72201;SDS011;60105;54.956;73.412;2023-05-14T07:07:22;10.00;;;5.10;;
72201;SDS011;60105;54.956;73.412;2023-05-14T07:10:23;8.50;;;5.22;;
72201;SDS011;60105;54.956;73.412;2023-05-14T07:13:25;11.60;;;4.90;;
72201;SDS011;60105;54.956;73.412;2023-05-14T07:16:28;11.23;;;6.05;;
72201;SDS011;60105;54.956;73.412;2023-05-14T07:19:29;12.03;;;6.13;;
72201;SDS011;60105;54.956;73.412;2023-05-14T07:22:30;13.88;;;5.30;;
72201;SDS011;60105;54.956;73.412;2023-05-14T07:25:32;14.00;;;5.70;;
72201;SDS011;60105;54.956;73.412;2023-05-14T07:28:34;8.80;;;5.60;;
72201;SDS011;60105;54.956;73.412;2023-05-14T07:31:35;9.10;;;5.60;;
72201;SDS011;60105;54.956;73.412;2023-05-14T07:34:38;10.13;;;5.50;;
72201;SDS011;60105;54.956;73.412;2023-05-14T07:37:46;10.70;;;5.80;;
72201;SDS011;60105;54.956;73.412;2023-05-14T07:40:47;13.63;;;6.17;;
72201;SDS011;60105;54.956;73.412;2023-05-14T07:43:49;10.50;;;5.37;;
72201;SDS011;60105;54.956;73.412;2023-05-14T07:46:50;14.25;;;6.63;;
72201;SDS011;60105;54.956;73.412;2023-05-14T07:49:55;8.27;;;5.80;;
72201;SDS011;60105;54.956;73.412;2023-05-14T07:56:18;8.75;;;6.20;;
72201;SDS011;60105;54.956;73.412;2023-05-14T07:59:20;11.05;;;7.18;;
72201;SDS011;60105;54.956;73.412;2023-05-14T08:02:22;14.33;;;7.37;;
72201;SDS011;60105;54.956;73.412;2023-05-14T08:05:23;12.55;;;8.35;;
72201;SDS011;60105;54.956;73.412;2023-05-14T08:08:26;15.18;;;8.38;;
72201;SDS011;60105;54.956;73.412;2023-05-14T08:11:27;15.57;;;8.27;;
72201;SDS011;60105;54.956;73.412;2023-05-14T08:14:28;13.40;;;7.63;;
72201;SDS011;60105;54.956;73.412;2023-05-14T08:17:30;13.20;;;7.83;;
72201;SDS011;60105;54.956;73.412;2023-05-14T08:20:31;11.67;;;7.77;;
72201;SDS011;60105;54.956;73.412;2023-05-14T08:23:32;9.60;;;6.80;;
72201;SDS011;60105;54.956;73.412;2023-05-14T08:26:34;10.40;;;6.85;;
72201;SDS011;60105;54.956;73.412;2023-05-14T08:29:35;8.55;;;5.95;;
72201;SDS011;60105;54.956;73.412;2023-05-14T08:33:17;12.23;;;7.23;;
72201;SDS011;60105;54.956;73.412;2023-05-14T08:36:19;12.93;;;7.27;;
72201;SDS011;60105;54.956;73.412;2023-05-14T08:39:20;11.87;;;7.47;;
72201;SDS011;60105;54.956;73.412;2023-05-14T08:42:21;14.55;;;7.85;;
72201;SDS011;60105;54.956;73.412;2023-05-14T08:45:29;11.10;;;8.02;;
72201;SDS011;60105;54.956;73.412;2023-05-14T08:48:41;14.87;;;7.73;;
72201;SDS011;60105;54.956;73.412;2023-05-14T08:51:43;13.82;;;7.45;;
72201;SDS011;60105;54.956;73.412;2023-05-14T08:54:49;11.20;;;7.60;;
72201;SDS011;60105;54.956;73.412;2023-05-14T09:01:18;9.20;;;6.25;;
72201;SDS011;60105;54.956;73.412;2023-05-14T09:04:22;11.93;;;6.93;;
72201;SDS011;60105;54.956;73.412;2023-05-14T09:07:25;11.77;;;7.65;;
72201;SDS011;60105;54.956;73.412;2023-05-14T09:10:27;13.35;;;7.55;;
72201;SDS011;60105;54.956;73.412;2023-05-14T09:13:28;12.32;;;5.82;;
72201;SDS011;60105;54.956;73.412;2023-05-14T09:16:30;10.80;;;6.60;;
72201;SDS011;60105;54.956;73.412;2023-05-14T09:19:32;10.15;;;6.18;;
72201;SDS011;60105;54.956;73.412;2023-05-14T09:23:17;10.64;;;6.83;;
72201;SDS011;60105;54.956;73.412;2023-05-14T09:26:21;9.63;;;5.97;;
72201;SDS011;60105;54.956;73.412;2023-05-14T09:29:25;10.07;;;5.73;;
72201;SDS011;60105;54.956;73.412;2023-05-14T09:32:34;9.13;;;5.22;;
72201;SDS011;60105;54.956;73.412;2023-05-14T09:35:36;8.10;;;4.63;;
72201;SDS011;60105;54.956;73.412;2023-05-14T09:38:41;9.67;;;5.33;;
72201;SDS011;60105;54.956;73.412;2023-05-14T09:41:42;9.35;;;5.13;;
72201;SDS011;60105;54.956;73.412;2023-05-14T09:44:44;8.48;;;5.13;;
72201;SDS011;60105;54.956;73.412;2023-05-14T09:48:18;8.82;;;3.97;;
72201;SDS011;60105;54.956;73.412;2023-05-14T09:51:19;8.35;;;4.22;;
72201;SDS011;60105;54.956;73.412;2023-05-14T09:54:21;6.63;;;4.27;;
72201;SDS011;60105;54.956;73.412;2023-05-14T09:57:23;8.75;;;4.35;;
72201;SDS011;60105;54.956;73.412;2023-05-14T10:00:24;8.90;;;4.20;;
72201;SDS011;60105;54.956;73.412;2023-05-14T10:03:26;12.05;;;4.35;;
72201;SDS011;60105;54.956;73.412;2023-05-14T10:06:31;9.18;;;4.22;;
72201;SDS011;60105;54.956;73.412;2023-05-14T10:09:36;7.50;;;4.40;;
72201;SDS011;60105;54.956;73.412;2023-05-14T10:13:19;8.82;;;5.07;;
72201;SDS011;60105;54.956;73.412;2023-05-14T10:16:27;7.55;;;4.15;;
72201;SDS011;60105;54.956;73.412;2023-05-14T10:19:34;10.90;;;4.82;;
72201;SDS011;60105;54.956;73.412;2023-05-14T10:23:17;8.13;;;4.05;;
72201;SDS011;60105;54.956;73.412;2023-05-14T10:26:19;7.38;;;4.68;;
72201;SDS011;60105;54.956;73.412;2023-05-14T10:29:30;7.60;;;3.83;;
72201;SDS011;60105;54.956;73.412;2023-05-14T10:33:17;5.91;;;4.17;;
72201;SDS011;60105;54.956;73.412;2023-05-14T10:36:19;7.97;;;4.15;;
72201;SDS011;60105;54.956;73.412;2023-05-14T10:39:20;8.60;;;4.83;;
72201;SDS011;60105;54.956;73.412;2023-05-14T10:42:31;7.65;;;4.25;;
72201;SDS011;60105;54.956;73.412;2023-05-14T10:45:35;7.77;;;4.77;;
72201;SDS011;60105;54.956;73.412;2023-05-14T10:48:38;10.48;;;4.80;;
72201;SDS011;60105;54.956;73.412;2023-05-14T10:51:41;8.33;;;4.37;;
72201;SDS011;60105;54.956;73.412;2023-05-14T10:58:17;7.70;;;4.18;;
72201;SDS011;60105;54.956;73.412;2023-05-14T11:01:18;8.38;;;4.80;;
72201;SDS011;60105;54.956;73.412;2023-05-14T11:04:23;6.70;;;4.13;;
72201;SDS011;60105;54.956;73.412;2023-05-14T11:07:28;8.02;;;4.25;;
72201;SDS011;60105;54.956;73.412;2023-05-14T11:10:31;8.80;;;4.73;;
72201;SDS011;60105;54.956;73.412;2023-05-14T11:13:33;6.68;;;4.47;;
72201;SDS011;60105;54.956;73.412;2023-05-14T11:16:35;11.00;;;4.32;;
72201;SDS011;60105;54.956;73.412;2023-05-14T11:19:37;8.27;;;4.30;;
72201;SDS011;60105;54.956;73.412;2023-05-14T11:23:17;9.75;;;4.90;;
72201;SDS011;60105;54.956;73.412;2023-05-14T11:26:19;7.13;;;4.50;;
72201;SDS011;60105;54.956;73.412;2023-05-14T11:29:21;8.25;;;4.03;;
72201;SDS011;60105;54.956;73.412;2023-05-14T11:32:22;6.38;;;4.00;;
72201;SDS011;60105;54.956;73.412;2023-05-14T11:35:24;5.80;;;3.20;;
72201;SDS011;60105;54.956;73.412;2023-05-14T11:38:25;9.57;;;3.63;;
72201;SDS011;60105;54.956;73.412;2023-05-14T11:41:27;6.57;;;3.53;;
72201;SDS011;60105;54.956;73.412;2023-05-14T11:44:30;7.18;;;3.58;;
72201;SDS011;60105;54.956;73.412;2023-05-14T11:47:32;5.97;;;3.70;;
72201;SDS011;60105;54.956;73.412;2023-05-14T11:50:34;5.77;;;3.40;;
72201;SDS011;60105;54.956;73.412;2023-05-14T11:53:37;11.82;;;3.72;;
72201;SDS011;60105;54.956;73.412;2023-05-14T11:56:38;6.18;;;3.45;;
72201;SDS011;60105;54.956;73.412;2023-05-14T11:59:40;7.10;;;3.60;;
72201;SDS011;60105;54.956;73.412;2023-05-14T12:03:18;4.80;;;2.63;;
72201;SDS011;60105;54.956;73.412;2023-05-14T12:06:29;4.93;;;2.87;;
72201;SDS011;60105;54.956;73.412;2023-05-14T12:09:34;6.80;;;3.40;;
72201;SDS011;60105;54.956;73.412;2023-05-14T12:13:17;7.68;;;3.96;;
72201;SDS011;60105;54.956;73.412;2023-05-14T12:16:19;6.73;;;4.23;;
72201;SDS011;60105;54.956;73.412;2023-05-14T12:19:21;8.32;;;3.22;;
72201;SDS011;60105;54.956;73.412;2023-05-14T12:22:23;8.20;;;3.67;;
72201;SDS011;60105;54.956;73.412;2023-05-14T12:25:25;9.37;;;4.07;;
72201;SDS011;60105;54.956;73.412;2023-05-14T12:28:26;8.35;;;4.63;;
72201;SDS011;60105;54.956;73.412;2023-05-14T12:31:32;7.90;;;4.15;;
72201;SDS011;60105;54.956;73.412;2023-05-14T12:34:35;7.30;;;3.78;;
72201;SDS011;60105;54.956;73.412;2023-05-14T12:37:46;8.56;;;5.04;;
72201;SDS011;60105;54.956;73.412;2023-05-14T12:40:47;7.65;;;3.83;;
72201;SDS011;60105;54.956;73.412;2023-05-14T12:43:48;9.07;;;5.83;;
72201;SDS011;60105;54.956;73.412;2023-05-14T12:46:50;10.23;;;5.90;;
72201;SDS011;60105;54.956;73.412;2023-05-14T12:49:51;9.23;;;4.87;;
72201;SDS011;60105;54.956;73.412;2023-05-14T12:53:17;7.30;;;4.35;;
72201;SDS011;60105;54.956;73.412;2023-05-14T12:56:18;12.10;;;5.25;;
72201;SDS011;60105;54.956;73.412;2023-05-14T12:59:21;7.70;;;5.20;;
72201;SDS011;60105;54.956;73.412;2023-05-14T13:02:22;9.00;;;4.80;;
72201;SDS011;60105;54.956;73.412;2023-05-14T13:05:23;9.60;;;5.37;;
72201;SDS011;60105;54.956;73.412;2023-05-14T13:08:25;8.27;;;5.40;;
72201;SDS011;60105;54.956;73.412;2023-05-14T13:11:27;10.40;;;5.68;;
72201;SDS011;60105;54.956;73.412;2023-05-14T13:14:30;8.63;;;5.63;;
72201;SDS011;60105;54.956;73.412;2023-05-14T13:17:31;9.50;;;5.78;;
72201;SDS011;60105;54.956;73.412;2023-05-14T13:20:33;8.50;;;3.97;;
72201;SDS011;60105;54.956;73.412;2023-05-14T13:23:34;9.38;;;4.30;;
72201;SDS011;60105;54.956;73.412;2023-05-14T13:26:36;8.32;;;4.03;;
72201;SDS011;60105;54.956;73.412;2023-05-14T13:29:37;7.67;;;4.30;;
72201;SDS011;60105;54.956;73.412;2023-05-14T13:33:17;6.85;;;3.92;;
72201;SDS011;60105;54.956;73.412;2023-05-14T13:36:18;9.33;;;4.53;;
72201;SDS011;60105;54.956;73.412;2023-05-14T13:39:20;12.03;;;5.60;;
72201;SDS011;60105;54.956;73.412;2023-05-14T13:42:26;15.13;;;4.13;;
72201;SDS011;60105;54.956;73.412;2023-05-14T13:45:28;8.85;;;4.15;;
72201;SDS011;60105;54.956;73.412;2023-05-14T13:48:29;9.00;;;3.70;;
72201;SDS011;60105;54.956;73.412;2023-05-14T13:51:30;5.67;;;3.93;;
72201;SDS011;60105;54.956;73.412;2023-05-14T13:54:32;8.77;;;4.32;;
72201;SDS011;60105;54.956;73.412;2023-05-14T13:58:17;10.48;;;3.99;;
72201;SDS011;60105;54.956;73.412;2023-05-14T14:01:19;8.60;;;3.33;;
72201;SDS011;60105;54.956;73.412;2023-05-14T14:04:20;7.57;;;3.63;;
72201;SDS011;60105;54.956;73.412;2023-05-14T14:07:21;9.15;;;3.40;;
72201;SDS011;60105;54.956;73.412;2023-05-14T14:10:23;9.73;;;4.83;;
72201;SDS011;60105;54.956;73.412;2023-05-14T14:13:25;7.88;;;3.78;;
72201;SDS011;60105;54.956;73.412;2023-05-14T14:16:27;17.13;;;4.70;;
72201;SDS011;60105;54.956;73.412;2023-05-14T14:19:29;8.88;;;3.97;;
72201;SDS011;60105;54.956;73.412;2023-05-14T14:22:31;10.93;;;5.77;;
72201;SDS011;60105;54.956;73.412;2023-05-14T14:25:33;12.48;;;4.82;;
72201;SDS011;60105;54.956;73.412;2023-05-14T14:28:34;11.25;;;5.13;;
72201;SDS011;60105;54.956;73.412;2023-05-14T14:31:35;11.50;;;4.67;;
72201;SDS011;60105;54.956;73.412;2023-05-14T14:34:37;9.25;;;5.43;;
72201;SDS011;60105;54.956;73.412;2023-05-14T14:37:46;9.43;;;5.47;;
72201;SDS011;60105;54.956;73.412;2023-05-14T14:40:53;13.48;;;4.82;;
72201;SDS011;60105;54.956;73.412;2023-05-14T14:43:55;9.68;;;5.75;;
72201;SDS011;60105;54.956;73.412;2023-05-14T14:46:57;12.03;;;5.23;;
72201;SDS011;60105;54.956;73.412;2023-05-14T14:49:58;11.52;;;6.53;;
72201;SDS011;60105;54.956;73.412;2023-05-14T14:56:19;12.48;;;5.00;;
72201;SDS011;60105;54.956;73.412;2023-05-14T14:59:20;16.00;;;6.30;;
72201;SDS011;60105;54.956;73.412;2023-05-14T15:02:22;17.63;;;6.83;;
72201;SDS011;60105;54.956;73.412;2023-05-14T15:05:23;15.57;;;6.97;;
72201;SDS011;60105;54.956;73.412;2023-05-14T15:08:26;10.60;;;6.18;;
72201;SDS011;60105;54.956;73.412;2023-05-14T15:11:28;13.63;;;6.32;;
72201;SDS011;60105;54.956;73.412;2023-05-14T15:14:29;16.63;;;6.13;;
72201;SDS011;60105;54.956;73.412;2023-05-14T15:17:31;15.03;;;5.57;;
72201;SDS011;60105;54.956;73.412;2023-05-14T15:20:32;19.80;;;5.70;;
72201;SDS011;60105;54.956;73.412;2023-05-14T15:23:33;19.33;;;6.68;;
72201;SDS011;60105;54.956;73.412;2023-05-14T15:26:35;17.47;;;6.47;;
72201;SDS011;60105;54.956;73.412;2023-05-14T15:29:36;14.87;;;6.13;;
72201;SDS011;60105;54.956;73.412;2023-05-14T15:33:16;25.04;;;6.92;;
72201;SDS011;60105;54.956;73.412;2023-05-14T15:36:19;17.55;;;7.05;;
72201;SDS011;60105;54.956;73.412;2023-05-14T15:39:20;14.23;;;7.40;;
72201;SDS011;60105;54.956;73.412;2023-05-14T15:42:22;26.23;;;7.00;;
72201;SDS011;60105;54.956;73.412;2023-05-14T15:45:23;17.80;;;8.10;;
72201;SDS011;60105;54.956;73.412;2023-05-14T15:48:25;13.25;;;6.85;;
72201;SDS011;60105;54.956;73.412;2023-05-14T15:51:27;17.20;;;7.00;;
72201;SDS011;60105;54.956;73.412;2023-05-14T15:54:28;17.02;;;7.13;;
72201;SDS011;60105;54.956;73.412;2023-05-14T15:57:30;21.37;;;8.47;;
72201;SDS011;60105;54.956;73.412;2023-05-14T16:00:32;19.83;;;8.00;;
72201;SDS011;60105;54.956;73.412;2023-05-14T16:03:34;30.00;;;7.93;;
72201;SDS011;60105;54.956;73.412;2023-05-14T16:06:35;22.00;;;7.57;;
72201;SDS011;60105;54.956;73.412;2023-05-14T16:09:41;19.50;;;8.00;;
72201;SDS011;60105;54.956;73.412;2023-05-14T16:13:18;32.40;;;9.82;;
72201;SDS011;60105;54.956;73.412;2023-05-14T16:16:19;39.88;;;9.60;;
72201;SDS011;60105;54.956;73.412;2023-05-14T16:19:22;35.45;;;10.63;;
72201;SDS011;60105;54.956;73.412;2023-05-14T16:22:24;24.48;;;9.90;;
72201;SDS011;60105;54.956;73.412;2023-05-14T16:25:25;35.60;;;10.82;;
72201;SDS011;60105;54.956;73.412;2023-05-14T16:28:26;40.10;;;8.27;;
72201;SDS011;60105;54.956;73.412;2023-05-14T16:31:28;48.17;;;12.30;;
72201;SDS011;60105;54.956;73.412;2023-05-14T16:34:31;49.80;;;11.17;;
72201;SDS011;60105;54.956;73.412;2023-05-14T16:37:32;43.17;;;10.60;;
72201;SDS011;60105;54.956;73.412;2023-05-14T16:40:34;39.03;;;11.75;;
72201;SDS011;60105;54.956;73.412;2023-05-14T16:43:39;38.03;;;10.30;;
72201;SDS011;60105;54.956;73.412;2023-05-14T16:46:40;43.88;;;15.23;;
72201;SDS011;60105;54.956;73.412;2023-05-14T16:49:41;45.63;;;15.57;;
72201;SDS011;60105;54.956;73.412;2023-05-14T16:53:17;48.47;;;15.13;;
72201;SDS011;60105;54.956;73.412;2023-05-14T16:56:18;45.10;;;13.75;;
72201;SDS011;60105;54.956;73.412;2023-05-14T16:59:21;46.67;;;13.57;;
72201;SDS011;60105;54.956;73.412;2023-05-14T17:02:22;41.63;;;13.73;;
72201;SDS011;60105;54.956;73.412;2023-05-14T17:05:35;42.33;;;14.50;;
72201;SDS011;60105;54.956;73.412;2023-05-14T17:08:37;42.13;;;15.93;;
72201;SDS011;60105;54.956;73.412;2023-05-14T17:11:38;47.00;;;17.43;;
72201;SDS011;60105;54.956;73.412;2023-05-14T17:14:39;42.13;;;17.03;;
72201;SDS011;60105;54.956;73.412;2023-05-14T17:18:17;47.50;;;15.95;;
72201;SDS011;60105;54.956;73.412;2023-05-14T17:21:19;47.47;;;19.30;;
72201;SDS011;60105;54.956;73.412;2023-05-14T17:24:20;42.33;;;19.85;;
72201;SDS011;60105;54.956;73.412;2023-05-14T17:27:21;36.40;;;16.63;;
72201;SDS011;60105;54.956;73.412;2023-05-14T17:30:23;42.23;;;19.83;;
72201;SDS011;60105;54.956;73.412;2023-05-14T17:33:24;39.30;;;17.40;;
72201;SDS011;60105;54.956;73.412;2023-05-14T17:36:26;43.63;;;20.45;;
72201;SDS011;60105;54.956;73.412;2023-05-14T17:39:39;38.55;;;19.30;;
72201;SDS011;60105;54.956;73.412;2023-05-14T17:43:17;38.05;;;17.85;;
72201;SDS011;60105;54.956;73.412;2023-05-14T17:46:18;32.75;;;17.70;;
72201;SDS011;60105;54.956;73.412;2023-05-14T17:49:22;27.33;;;14.20;;
72201;SDS011;60105;54.956;73.412;2023-05-14T17:52:23;31.55;;;13.57;;
72201;SDS011;60105;54.956;73.412;2023-05-14T17:55:24;29.33;;;13.13;;
72201;SDS011;60105;54.956;73.412;2023-05-14T17:58:26;18.83;;;10.77;;
72201;SDS011;60105;54.956;73.412;2023-05-14T18:01:28;24.45;;;11.23;;
72201;SDS011;60105;54.956;73.412;2023-05-14T18:04:29;30.40;;;11.60;;
72201;SDS011;60105;54.956;73.412;2023-05-14T18:07:32;18.98;;;9.60;;
72201;SDS011;60105;54.956;73.412;2023-05-14T18:10:34;18.53;;;10.70;;
72201;SDS011;60105;54.956;73.412;2023-05-14T18:13:35;24.73;;;11.77;;
72201;SDS011;60105;54.956;73.412;2023-05-14T18:16:37;25.03;;;9.80;;
72201;SDS011;60105;54.956;73.412;2023-05-14T18:19:39;23.10;;;10.23;;
72201;SDS011;60105;54.956;73.412;2023-05-14T18:23:17;18.35;;;9.38;;
72201;SDS011;60105;54.956;73.412;2023-05-14T18:26:19;19.42;;;9.75;;
72201;SDS011;60105;54.956;73.412;2023-05-14T18:29:21;20.93;;;9.70;;
72201;SDS011;60105;54.956;73.412;2023-05-14T18:32:23;22.05;;;9.45;;